Perris, California
Current Conditions -  °F | °C
As of 3:58 PM on Monday 20 Oct 2014 (Local Time) from KRIV Reporting Station
Clear Clear  
Wind Chill: 78°   Ceiling: Unl
Heat Index: 79°   Visibility: 10mi
Dew Point: 58°   Wind: 8mph
Humidity: 50%   Direction: 300°WNW
Pressure: 29.89"   Gusts: NA
Location:  33.78°N, 117.22°W
Report Text: KRIV 202258Z AUTO 30007KT 10SM CLR 26/15 A2989 RMK AO2 SLP112 T02570146
Loading
Personal Weather Stations






























Interactive Weather Map
Tropical Storm Tracking
New forecast layout! Learn more

10-Day Weather Forecast

Advertisements
Track Severe Weather on mobile